Flight Track Log - Related Links

Times and Time Zones

All times are in EDT time to prevent confusion due to time zone crossing. See the SWA738 flight status page for this flight to view local times or setup timezone preferences in your user account.

Time Position Orientation Groundspeed Altitude Reporting Facility
EDT Latitude Longitude Course Direction KTS MPH feet Rate Location/Type
Sun 03:58:13 PM 26.0750 -80.1344 82° East 136 157 900  Level Miami Center
Sun 03:59:15 PM 26.0825 -80.0744 82° East 221 254 2,400 1,370 Climbing Miami Center
Sun 03:59:45 PM 26.0917 -80.0378 74° East 255 293 3,000 2,400 Climbing Miami Center
Sun 04:00:45 PM 26.1186 -79.9575 69° East 273 314 6,000 3,300 Climbing Miami Center
Sun 04:01:45 PM 26.1453 -79.8725 71° East 285 328 9,600 2,950 Climbing Miami Center
Sun 04:02:45 PM 26.1806 -79.7783 67° East 296 341 11,900 2,750 Climbing Miami Center
Sun 04:03:45 PM 26.2408 -79.6897 53° Northeast 324 373 15,100 3,350 Climbing Miami Center
Sun 04:04:45 PM 26.3036 -79.5844 56° Northeast 364 419 18,600 2,750 Climbing Miami Center
Sun 04:05:45 PM 26.3283 -79.4808 75° East 374 430 20,600 2,150 Climbing Miami Center
Sun 04:06:45 PM 26.4014 -79.3756 52° Northeast 393 452 22,900 2,150 Climbing Miami Center
Sun 04:07:45 PM 26.5003 -79.3336 21° North 383 441 24,900 2,150 Climbing Miami Center
Sun 04:08:45 PM 26.6244 -79.2781 22° Northeast 420 483 27,200 1,950 Climbing Miami Center
Sun 04:09:45 PM 26.7294 -79.2361 20° North 434 499 28,800 1,450 Climbing Miami Center
Sun 04:10:45 PM 26.8514 -79.1850 21° North 447 514 30,100 1,300 Climbing Miami Center
Sun 04:11:45 PM 26.9756 -79.1361 19° North 457 526 31,400 1,900 Climbing Miami Center
Sun 04:12:45 PM 27.1081 -79.0781 21° North 467 537 33,900 2,000 Climbing Miami Center
Sun 04:13:45 PM 27.2192 -79.0428 16° North 462 532 35,400 1,300 Climbing Miami Center
Sun 04:14:45 PM 27.3428 -79.0219 North 456 525 36,500 1,200 Climbing Miami Center
Sun 04:15:45 PM 27.4808 -79.0011 North 449 517 37,800 1,100 Climbing Miami Center
Sun 04:16:45 PM 27.6064 -78.9847 North 449 517 38,700 600 Climbing Miami Center
Sun 04:17:45 PM 27.7256 -78.9658 North 456 525 39,000 150 Climbing Miami Center
Sun 04:18:45 PM 27.8492 -78.9469 North 461 531 39,000  Level Miami Center
Sun 04:19:45 PM 27.9850 -78.9281 North 455 524 39,000  Level Miami Center
Sun 04:20:45 PM 28.1086 -78.9069 North 449 517 39,000  Level Miami Center
Sun 04:21:45 PM 28.2342 -78.8881 North 449 517 39,000  Level Miami Center
Sun 04:22:45 PM 28.3617 -78.8667 North 449 517 39,000  Level Miami Center
Sun 04:23:45 PM 28.4850 -78.8475 North 449 517 39,000  Level Miami Center
Sun 04:24:45 PM 28.6044 -78.8308 North 449 517 39,000  Level Miami Center
Sun 04:25:45 PM 28.7319 -78.8117 North 443 510 39,000  Level Miami Center
Sun 04:26:45 PM 28.8553 -78.7925 North 448 516 39,000  Level Miami Center
Sun 04:27:45 PM 28.9786 -78.7733 North 448 516 39,000  Level Miami Center
Sun 04:28:45 PM 29.1042 -78.7542 North 448 516 39,000  Level Miami Center
Sun 04:29:45 PM 29.2294 -78.7350 North 448 516 39,000  Level Miami Center
Sun 04:30:45 PM 29.3550 -78.7181 North 448 516 39,000  Level Miami Center
Sun 04:31:45 PM 29.4761 -78.6939 10° North 443 510 39,000  Level Miami Center
Sun 04:32:45 PM 29.5994 -78.6722 North 438 504 39,000  Level Miami Center
Sun 04:35:03 PM 29.8736 -78.6244 North 452 520 39,000  Level Jacksonville Center
Sun 04:36:04 PM 30.0047 -78.6117 North 457 526 39,000  Level Jacksonville Center
Sun 04:37:03 PM 30.1269 -78.5869 10° North 457 526 39,000  Level Jacksonville Center
Sun 04:38:03 PM 30.2536 -78.5669 North 457 526 39,000  Level Jacksonville Center
Sun 04:39:04 PM 30.3761 -78.5469 North 457 526 39,000  Level Jacksonville Center
Sun 04:40:03 PM 30.5047 -78.5264 North 455 524 39,000  Level Jacksonville Center
Sun 04:41:03 PM 30.6439 -78.5033 North 468 539 39,000  Level Jacksonville Center
Sun 04:42:03 PM 30.7706 -78.4831 North 461 531 39,000  Level Jacksonville Center
Sun 04:43:03 PM 30.8972 -78.4625 North 461 531 39,000  Level Jacksonville Center
Sun 04:44:03 PM 31.0217 -78.4422 North 461 531 39,000  Level Jacksonville Center
Sun 04:45:04 PM 31.1525 -78.4214 North 461 531 39,000  Level Jacksonville Center
Sun 04:46:04 PM 31.2772 -78.4056 North 466 536 39,000  Level Jacksonville Center
Sun 04:47:04 PM 31.4078 -78.3800 North 466 536 39,000  Level Jacksonville Center
Sun 04:48:03 PM 31.5383 -78.3567 North 466 536 39,000  Level Jacksonville Center
Sun 04:49:03 PM 31.6672 -78.3356 North 461 531 39,000  Level Jacksonville Center
Sun 04:50:03 PM 31.7939 -78.3197 North 466 536 39,000  Level Jacksonville Center
Sun 04:51:04 PM 31.9244 -78.2936 10° North 466 536 39,000  Level Jacksonville Center
Sun 04:52:03 PM 32.0572 -78.2697 North 466 536 39,000  Level Jacksonville Center
Sun 04:53:03 PM 32.1839 -78.2511 North 466 536 39,000  Level Jacksonville Center
Sun 04:54:04 PM 32.3142 -78.2200 11° North 468 539 39,000  Level Jacksonville Center
Sun 04:55:04 PM 32.4450 -78.2008 North 468 539 39,000  Level Jacksonville Center
Sun 04:56:03 PM 32.5714 -78.1819 North 463 533 39,000  Level Jacksonville Center
Sun 04:57:04 PM 32.7019 -78.1556 10° North 463 533 39,000  Level Jacksonville Center
Sun 04:59:05 PM 32.9542 -78.1178 North 448 516 39,000  Level Washington Center
Sun 05:00:04 PM 33.0778 -78.0942 North 442 509 39,000  Level Washington Center
Sun 05:01:04 PM 33.2053 -78.0756 North 447 514 39,000  Level Washington Center
Sun 05:02:05 PM 33.3308 -78.0519 North 447 514 39,000  Level Washington Center
Sun 05:03:06 PM 33.4564 -78.0308 North 434 499 39,000 -50 Level Washington Center
Sun 05:04:06 PM 33.5819 -78.0094 North 451 519 38,900 -51 Descending Washington Center
Sun 05:05:03 PM 33.7078 -77.9883 North 448 516 38,900 51 Level Washington Center
Sun 05:06:04 PM 33.8311 -77.9667 North 448 516 39,000 50 Climbing Washington Center
Sun 05:07:04 PM 33.9464 -77.9475 North 436 502 39,000  Level Washington Center
Sun 05:08:05 PM 34.0697 -77.9233 North 441 507 39,000  Level Washington Center
Sun 05:09:05 PM 34.1869 -77.9042 North 441 507 39,000  Level Washington Center
Sun 05:10:06 PM 34.3106 -77.8850 North 436 502 39,000  Level Washington Center
Sun 05:11:04 PM 34.4319 -77.8683 North 436 502 39,000  Level Washington Center
Sun 05:12:04 PM 34.5531 -77.8539 North 441 507 39,000  Level Washington Center
Sun 05:13:05 PM 34.6744 -77.8447 North 441 507 39,000  Level Washington Center
Sun 05:14:06 PM 34.7956 -77.8328 North 441 507 39,000  Level Washington Center
Sun 05:15:06 PM 34.9169 -77.8133 North 441 507 39,000  Level Washington Center
Sun 05:16:05 PM 35.0444 -77.7992 North 447 514 39,000 -500 Level Washington Center
Sun 05:17:06 PM 35.1631 -77.8203 352° North 434 499 38,000 -958 Descending Washington Center
Sun 05:18:04 PM 35.2839 -77.8336 355° North 434 499 37,100 -508 Descending Washington Center
Sun 05:19:04 PM 35.4044 -77.8497 354° North 434 499 37,000 -246 Descending Washington Center
Sun 05:20:06 PM 35.5231 -77.8633 355° North 434 499 36,600 -639 Descending Washington Center
Sun 05:21:06 PM 35.6442 -77.8719 357° North 429 494 35,700 -950 Descending Washington Center
Sun 05:22:06 PM 35.7672 -77.8703 North 429 494 34,700 -1,017 Descending Washington Center
Sun 05:23:04 PM 35.8900 -77.8789 357° North 439 505 33,700 -1,017 Descending Washington Center
Sun 05:24:04 PM 36.0131 -77.8878 357° North 439 505 32,700 -992 Descending Washington Center
Sun 05:25:05 PM 36.1361 -77.8939 358° North 439 505 31,700 -1,785 Descending Washington Center
Sun 05:26:05 PM 36.2600 -77.8458 17° North 446 513 29,100 -1,339 Descending Washington Center
Sun 05:27:06 PM 36.3903 -77.7928 18° North 458 527 29,000 -50 Descending Washington Center
Sun 05:28:06 PM 36.5144 -77.7369 20° North 464 534 29,000  Level Washington Center
Sun 05:29:04 PM 36.6447 -77.6836 18° North 470 541 29,000 -454 Level Washington Center
Sun 05:30:05 PM 36.7708 -77.6300 19° North 470 541 28,100 -1,033 Descending Washington Center
Sun 05:31:06 PM 36.8992 -77.5761 19° North 475 547 26,900 -893 Descending Washington Center
Sun 05:32:06 PM 37.0292 -77.5222 18° North 480 552 26,300 -458 Descending Washington Center
Sun 05:33:04 PM 37.1633 -77.4839 13° North 485 558 26,000 -153 Descending Washington Center
Sun 05:34:04 PM 37.2975 -77.4481 12° North 485 558 26,000 -446 Level Washington Center
Sun 05:35:05 PM 37.4294 -77.4094 13° North 485 558 25,100 -992 Descending Washington Center
Sun 05:36:05 PM 37.5594 -77.3733 12° North 480 552 24,000 -1,059 Descending Washington Center
Sun 05:37:04 PM 37.6872 -77.3369 13° North 474 545 23,000 -504 Descending Washington Center
Sun 05:38:04 PM 37.8108 -77.3003 13° North 464 534 23,000 -590 Level Washington Center
Sun 05:39:06 PM 37.9364 -77.2664 12° North 459 528 21,800 -1,574 Descending Washington Center
Sun 05:40:06 PM 38.0578 -77.2347 12° North 453 521 19,800 -2,034 Descending Washington Center
Sun 05:41:04 PM 38.1792 -77.2003 13° North 453 521 17,800 -1,831 Descending Washington Center
Sun 05:42:04 PM 38.2903 -77.1631 15° North 434 499 16,200 -1,388 Descending Washington Center
Sun 05:43:05 PM 38.3928 -77.1228 17° North 412 474 15,000 -1,587 Descending Washington Center
Sun 05:44:05 PM 38.4753 -77.0292 42° Northeast 387 445 13,000 -1,785 Descending Washington Center
Sun 05:45:06 PM 38.5514 -76.9350 44° Northeast 382 440 11,400 -1,361 Descending Washington Center
Sun 05:46:04 PM 38.6233 -76.8458 44° Northeast 365 420 10,300 -1,008 Descending Washington Center
Sun 05:47:05 PM 38.6844 -76.7697 44° Northeast 332 382 9,400 -942 Descending Washington Center
Sun 05:48:05 PM 38.7333 -76.6856 53° Northeast 309 356 8,400 -1,271 Descending Washington Center
Sun 05:49:03 PM 38.7833 -76.5833 58° Northeast 293 337 6,900 -1,161 Descending Potomac TRACON
Sun 05:50:09 PM 38.8333 -76.5333 38° Northeast 256 295 6,000 -1,200 Descending Potomac TRACON
Sun 05:51:03 PM 38.9000 -76.5500 349° North 250 288 4,500 -1,211 Descending Potomac TRACON
Sun 05:52:03 PM 38.9667 -76.5667 349° North 229 264 3,700 -950 Descending Potomac TRACON
Sun 05:53:03 PM 39.0167 -76.5833 345° North 206 237 2,600 -1,053 Descending Potomac TRACON
Sun 05:53:57 PM 39.0667 -76.6000 345° North 182 209 1,700 -550 Descending Potomac TRACON
Sun 05:55:03 PM 39.1167 -76.6167 346° North 144 166 1,500 -429 Descending Potomac TRACON
Sun 05:56:03 PM 39.1333 -76.6333 322° Northwest 122 140 800 -700 Descending Potomac TRACON
Sun 05:58:00 PM 39.1667 -76.6667 339° North  Level FlightAware Approximate
Sun 06:05:00 PM 39.1754 -76.6683 339° North  Level Estimated
Sun 06:06:00 PM 39.1754 -76.6683 339° North  Level Estimated
Sun 06:07:00 PM 39.1754 -76.6683 339° North  Level Estimated
Sun 06:08:00 PM 39.1754 -76.6683 339° North  Level Estimated
Sun 06:09:00 PM 39.1754 -76.6683 339° North  Level Estimated

Login

Don't have an account? Register now (free) for customized features, flight alerts, and more!